Time;durP1;ratioP1;P1;durP2;ratioP2;P2;SDS_P1;SDS_P2;PMS_P1;PMS_P2;Temp;Humidity;BMP_temperature;BMP_pressure;BME280_temperature;BME280_humidity;BME280_pressure;Samples;Min_cycle;Max_cycle;Signal;HPM_P1;HPM_P2
2021/12/20 00:02:23;;;;;;;10.10;3.13;;;;;;;-146.64;100.00;40174.94;5008603;28;20030;-77
2021/12/20 00:04:51;;;;;;;11.07;6.50;;;;;;;-146.64;100.00;40160.63;5008768;28;20128;-77
2021/12/20 00:07:17;;;;;;;13.48;3.80;;;;;;;-146.64;100.00;40197.47;5025529;28;20083;-77
2021/12/20 00:09:42;;;;;;;5.18;3.28;;;;;;;-146.64;100.00;40185.19;5009814;28;20401;-77
2021/12/20 00:12:08;;;;;;;8.30;3.50;;;;;;;-146.64;100.00;40185.19;5009263;28;20057;-77
2021/12/20 00:14:33;;;;;;;10.68;3.78;;;;;;;-146.64;100.00;40168.81;4994763;28;20064;-77
2021/12/20 00:16:58;;;;;;;10.93;3.28;;;;;;;-146.64;100.00;40193.38;4992743;28;20097;-77
2021/12/20 00:19:25;;;;;;;8.57;3.00;;;;;;;-146.64;100.00;40181.09;5011348;28;20026;-77
2021/12/20 00:21:51;;;;;;;7.38;3.33;;;;;;;-146.64;100.00;40144.22;5009722;28;20061;-77
2021/12/20 00:24:18;;;;;;;11.20;3.20;;;;;;;-146.64;100.00;40179.03;5003185;28;20111;-77
2021/12/20 00:26:43;;;;;;;7.35;3.08;;;;;;;-146.64;100.00;40168.81;5009843;28;20473;-77
2021/12/20 00:29:09;;;;;;;5.50;3.60;;;;;;;-146.64;100.00;40156.50;5009153;28;20160;-77
2021/12/20 00:31:34;;;;;;;10.05;4.15;;;;;;;-146.64;100.00;40123.75;5008767;28;20030;-77
2021/12/20 00:33:59;;;;;;;9.43;3.05;;;;;;;-146.64;100.00;40093.06;5004253;28;20056;-77
2021/12/20 00:36:27;;;;;;;12.63;3.88;;;;;;;-146.64;100.00;40066.44;5009493;28;20030;-78
2021/12/20 00:41:36;;;;;;;25.52;5.20;;;;;;;-146.64;100.00;40017.31;5006937;28;20048;-77
2021/12/20 00:44:02;;;;;;;12.50;3.20;;;;;;;-146.64;100.00;39906.78;5009610;28;20030;-77
2021/12/20 00:46:27;;;;;;;15.55;3.03;;;;;;;-146.64;100.00;39857.66;5007259;28;20034;-77
2021/12/20 00:48:52;;;;;;;20.95;3.60;;;;;;;-146.64;100.00;39820.81;5007640;28;20103;-77
2021/12/20 00:51:18;;;;;;;16.42;3.33;;;;;;;-146.64;100.00;39818.78;5009414;28;20068;-77
2021/12/20 00:53:43;;;;;;;16.33;3.72;;;;;;;-146.64;100.00;39773.75;5008348;28;20018;-77
2021/12/20 00:56:09;;;;;;;16.08;3.53;;;;;;;-146.64;100.00;39831.06;4993038;28;20061;-77
2021/12/20 00:58:34;;;;;;;16.35;4.18;;;;;;;-146.64;100.00;39841.28;5007829;28;20058;-77
2021/12/20 01:00:59;;;;;;;20.02;3.25;;;;;;;-146.64;100.00;39890.41;4996547;28;20125;-77
2021/12/20 01:03:26;;;;;;;17.52;3.53;;;;;;;-146.64;100.00;39863.81;4997272;28;20537;-77
2021/12/20 01:05:51;;;;;;;12.65;3.38;;;;;;;-146.64;100.00;39880.19;5001982;28;20046;-77
2021/12/20 01:08:18;;;;;;;16.17;3.53;;;;;;;-146.64;100.00;39878.13;4988424;28;20041;-77
2021/12/20 01:10:48;;;;;;;23.08;3.28;;;;;;;-146.64;100.00;39855.63;4972209;28;20052;-77
2021/12/20 01:13:16;;;;;;;11.82;3.08;;;;;;;-146.64;100.00;39914.97;4984614;28;20022;-76
2021/12/20 01:15:47;;;;;;;14.45;3.22;;;;;;;-146.64;100.00;39857.66;4988460;28;20082;-76
2021/12/20 01:18:12;;;;;;;17.83;4.13;;;;;;;-146.64;100.00;39886.31;4955966;28;20061;-76
2021/12/20 01:20:38;;;;;;;21.20;3.75;;;;;;;-146.64;100.00;39880.19;4980320;28;20061;-76
2021/12/20 01:23:04;;;;;;;14.98;2.83;;;;;;;-146.64;100.00;39869.94;4972799;28;20533;-76
2021/12/20 01:25:30;;;;;;;21.03;3.70;;;;;;;-146.64;100.00;39882.22;4989317;28;20061;-76
2021/12/20 01:27:55;;;;;;;21.63;3.20;;;;;;;-146.64;100.00;39894.50;4977570;28;20470;-76
2021/12/20 01:30:22;;;;;;;21.02;3.35;;;;;;;-146.64;100.00;39884.28;4970262;28;20107;-76
2021/12/20 01:32:48;;;;;;;15.38;3.65;;;;;;;-146.64;100.00;39857.66;4972549;28;20121;-76
2021/12/20 01:35:14;;;;;;;16.17;3.08;;;;;;;-146.64;100.00;39886.31;4990161;28;20120;-75
2021/12/20 01:37:40;;;;;;;17.33;2.92;;;;;;;-146.64;100.00;39773.75;4982732;28;20023;-75
2021/12/20 01:40:07;;;;;;;13.38;3.00;;;;;;;-146.64;100.00;39847.44;4990955;28;20121;-76
2021/12/20 01:42:34;;;;;;;12.90;2.75;;;;;;;-146.64;100.00;39914.97;4987950;28;20482;-76
2021/12/20 01:45:00;;;;;;;;;;;;;;;-146.64;100.00;39921.13;4973941;28;20381;-76
2021/12/20 01:47:30;;;;;;;14.60;2.83;;;;;;;-146.64;100.00;39853.56;4988879;28;19996;-76
2021/12/20 01:50:04;;;;;;;20.83;3.60;;;;;;;-146.64;100.00;39878.13;4974048;28;20018;-76
2021/12/20 01:52:39;;;;;;;15.48;3.28;;;;;;;-146.64;100.00;39841.28;4986302;28;20026;-76
2021/12/20 01:55:06;;;;;;;22.63;4.00;;;;;;;-146.64;100.00;39857.66;4992665;28;20088;-76
2021/12/20 01:57:32;;;;;;;18.33;3.40;;;;;;;-146.64;100.00;39857.66;4993014;28;20038;-76
2021/12/20 01:59:57;;;;;;;15.25;2.90;;;;;;;-146.64;100.00;39810.59;4986894;28;20442;-76
2021/12/20 02:02:23;;;;;;;10.73;2.22;;;;;;;-146.64;100.00;39831.06;4992878;28;20454;-76
2021/12/20 02:04:51;;;;;;;;;;;;;;;-146.64;100.00;39849.47;5002691;28;20061;-76
2021/12/20 02:07:49;;;;;;;15.20;3.13;;;;;;;-146.64;100.00;39867.91;5012796;28;19960;-76
2021/12/20 02:10:14;;;;;;;23.35;3.88;;;;;;;-146.64;100.00;39800.34;4995273;28;20037;-76
2021/12/20 02:12:40;;;;;;;20.25;4.32;;;;;;;-146.64;100.00;39695.97;4992040;28;20022;-76
2021/12/20 02:15:06;;;;;;;22.50;3.00;;;;;;;-146.64;100.00;39829.00;5010981;28;20036;-76
2021/12/20 02:17:31;;;;;;;20.45;2.92;;;;;;;-146.64;100.00;39788.06;5011319;28;20129;-75
2021/12/20 02:20:01;;;;;;;24.63;3.60;;;;;;;-146.64;100.00;39747.13;4986224;28;20025;-76
2021/12/20 02:22:26;;;;;;;27.55;3.60;;;;;;;-146.64;100.00;39743.03;5011455;28;20026;-76
2021/12/20 02:24:51;;;;;;;31.85;3.30;;;;;;;-146.64;100.00;39775.78;4980328;28;20026;-76
2021/12/20 02:27:17;;;;;;;21.95;3.25;;;;;;;-146.64;100.00;39734.84;5002253;28;20044;-76
2021/12/20 02:30:01;;;;;;;26.48;4.15;;;;;;;-146.64;100.00;39693.91;5011548;28;20080;-76
2021/12/20 02:37:55;;;;;;;28.42;4.32;;;;;;;-146.64;100.00;39661.16;5007624;28;20037;-76
2021/12/20 02:40:22;;;;;;;35.10;4.05;;;;;;;-146.64;100.00;39638.66;5011475;28;20041;-75
2021/12/20 02:42:49;;;;;;;26.70;4.43;;;;;;;-146.64;100.00;39693.91;4995305;28;20026;-76
2021/12/20 02:45:15;;;;;;;32.85;5.38;;;;;;;-146.64;100.00;39612.03;5010131;28;20124;-76
2021/12/20 02:47:46;;;;;;;27.65;4.68;;;;;;;-146.64;100.00;39632.50;5010646;28;20086;-75
2021/12/20 02:50:12;;;;;;;21.80;3.63;;;;;;;-146.64;100.00;39607.94;4992989;28;20026;-75
2021/12/20 02:52:38;;;;;;;20.95;3.22;;;;;;;-146.64;100.00;39632.50;5012815;28;20029;-76
2021/12/20 02:55:05;;;;;;;23.03;3.93;;;;;;;-146.64;100.00;39593.63;4990700;28;20481;-75
2021/12/20 02:57:36;;;;;;;27.27;3.95;;;;;;;-146.64;100.00;39603.84;4994638;28;20386;-75
2021/12/20 03:00:04;;;;;;;39.47;4.72;;;;;;;-146.64;100.00;39618.19;4993927;28;20048;-75
2021/12/20 03:02:30;;;;;;;33.33;4.35;;;;;;;-146.64;100.00;39605.91;5008440;28;20121;-75
2021/12/20 03:04:55;;;;;;;20.63;4.05;;;;;;;-146.64;100.00;39644.78;5001108;28;20181;-75
2021/12/20 03:07:25;;;;;;;31.92;5.03;;;;;;;-146.64;100.00;39648.88;5012099;28;20037;-75
2021/12/20 03:09:55;;;;;;;26.67;5.07;;;;;;;-146.64;100.00;39677.53;5004988;28;20072;-76
2021/12/20 03:12:24;;;;;;;24.23;3.58;;;;;;;-146.64;100.00;39657.06;5009687;28;20102;-76
2021/12/20 03:14:51;;;;;;;29.92;4.03;;;;;;;-146.64;100.00;39726.66;5009374;28;20032;-76
2021/12/20 03:17:16;;;;;;;24.33;3.50;;;;;;;-146.64;100.00;39698.00;5001721;28;20041;-76
2021/12/20 03:19:42;;;;;;;27.98;4.10;;;;;;;-146.64;100.00;39722.56;4986974;28;20030;-76
2021/12/20 03:22:07;;;;;;;35.80;3.90;;;;;;;-146.64;100.00;39706.19;5003755;28;20026;-76
2021/12/20 03:24:33;;;;;;;21.70;4.10;;;;;;;-146.64;100.00;39657.06;5004060;28;20034;-75
2021/12/20 03:26:59;;;;;;;27.20;5.13;;;;;;;-146.64;100.00;39708.25;5000622;28;20112;-76
2021/12/20 03:29:24;;;;;;;26.20;3.60;;;;;;;-146.64;100.00;39610.00;5011067;28;20673;-77
2021/12/20 03:31:50;;;;;;;37.33;3.97;;;;;;;-146.64;100.00;39667.31;5010108;28;20101;-77
2021/12/20 03:34:17;;;;;;;31.98;3.25;;;;;;;-146.64;100.00;39634.56;4993615;28;20034;-77
2021/12/20 03:36:43;;;;;;;25.13;4.00;;;;;;;-146.64;100.00;39632.50;5006797;28;20025;-77
2021/12/20 03:39:08;;;;;;;24.20;4.25;;;;;;;-146.64;100.00;39659.13;5011547;28;20029;-77
2021/12/20 03:41:35;;;;;;;27.48;3.95;;;;;;;-146.64;100.00;39640.69;5010404;28;20061;-77
2021/12/20 03:44:00;;;;;;;27.13;3.85;;;;;;;-146.64;100.00;39661.16;5007285;28;20084;-77
2021/12/20 03:46:26;;;;;;;26.02;4.22;;;;;;;-146.64;100.00;39636.59;5008071;28;20038;-77
2021/12/20 03:48:51;;;;;;;28.17;3.97;;;;;;;-146.64;100.00;39618.19;5009601;28;20461;-77
2021/12/20 03:51:17;;;;;;;26.80;4.80;;;;;;;-146.64;100.00;39632.50;5009945;28;20417;-77
2021/12/20 03:53:42;;;;;;;23.48;4.20;;;;;;;-146.64;100.00;39607.94;5011320;28;20396;-77
2021/12/20 03:56:08;;;;;;;25.90;4.43;;;;;;;-146.64;100.00;39583.38;4993551;28;20106;-77
2021/12/20 03:58:34;;;;;;;19.80;4.43;;;;;;;-146.64;100.00;39595.66;5009109;28;20044;-77
2021/12/20 04:01:03;;;;;;;32.92;3.95;;;;;;;-146.64;100.00;39614.09;5010028;28;20113;-77
2021/12/20 04:03:31;;;;;;;41.80;4.50;;;;;;;-146.64;100.00;39612.03;5012277;28;20029;-77
2021/12/20 04:05:56;;;;;;;28.80;4.07;;;;;;;-146.64;100.00;39624.31;5007744;28;20106;-77
2021/12/20 04:08:22;;;;;;;30.52;4.40;;;;;;;-146.64;100.00;39652.97;5009825;28;20688;-77
2021/12/20 04:10:47;;;;;;;33.78;3.97;;;;;;;-146.64;100.00;39556.78;5010118;28;20033;-77
2021/12/20 04:13:12;;;;;;;46.03;4.55;;;;;;;-146.64;100.00;39648.88;5007433;28;20123;-77
2021/12/20 04:15:38;;;;;;;21.73;4.05;;;;;;;-146.64;100.00;39671.41;5011163;28;20108;-77
2021/12/20 04:18:04;;;;;;;34.47;4.60;;;;;;;-146.64;100.00;39652.97;5006239;28;20452;-77
2021/12/20 04:20:29;;;;;;;29.53;4.63;;;;;;;-146.64;100.00;39595.66;5009542;28;20026;-77
2021/12/20 04:22:55;;;;;;;34.45;4.53;;;;;;;-146.64;100.00;39591.56;5009251;28;20099;-77
2021/12/20 04:25:20;;;;;;;23.08;3.33;;;;;;;-146.64;100.00;39638.66;5006849;28;20037;-77
2021/12/20 04:27:46;;;;;;;32.00;3.90;;;;;;;-146.64;100.00;39632.50;4988158;28;20065;-77
2021/12/20 04:30:11;;;;;;;25.67;3.70;;;;;;;-146.64;100.00;39636.59;5008814;28;20026;-77
2021/12/20 04:32:44;;;;;;;38.83;3.97;;;;;;;-146.64;100.00;39681.63;4989707;28;20022;-77
2021/12/20 04:35:11;;;;;;;25.65;4.15;;;;;;;-146.64;100.00;39669.34;4999017;28;20508;-77
2021/12/20 04:37:36;;;;;;;32.65;4.88;;;;;;;-146.64;100.00;39698.00;4986691;28;20065;-77
2021/12/20 04:40:07;;;;;;;31.52;3.95;;;;;;;-146.64;100.00;39698.00;4987184;28;20050;-77
2021/12/20 04:42:32;;;;;;;24.77;4.38;;;;;;;-146.64;100.00;39755.31;5008649;28;20055;-77
2021/12/20 04:44:58;;;;;;;28.48;4.55;;;;;;;-146.64;100.00;39714.38;4992804;28;20028;-77
2021/12/20 04:47:23;;;;;;;30.48;4.78;;;;;;;-146.64;100.00;39681.63;4992164;28;20160;-77
2021/12/20 04:49:49;;;;;;;34.55;4.80;;;;;;;-146.64;100.00;39685.72;4979297;28;20091;-77
2021/12/20 04:52:14;;;;;;;29.92;4.22;;;;;;;-146.64;100.00;39700.06;5009306;28;20335;-77
2021/12/20 04:54:39;;;;;;;29.98;4.90;;;;;;;-146.64;100.00;39689.81;5006413;28;20022;-77
2021/12/20 04:57:05;;;;;;;23.02;4.40;;;;;;;-146.64;100.00;39693.91;5006120;28;20025;-77
2021/12/20 04:59:30;;;;;;;20.48;3.72;;;;;;;-146.64;100.00;39644.78;5008066;28;20076;-77
2021/12/20 05:01:55;;;;;;;25.35;4.72;;;;;;;-146.64;100.00;39628.41;5008925;28;20033;-77
2021/12/20 05:04:21;;;;;;;24.50;4.15;;;;;;;-146.64;100.00;39618.19;4994498;28;20038;-77
2021/12/20 05:06:48;;;;;;;23.38;3.70;;;;;;;-146.64;100.00;39646.84;4991893;28;20048;-77
2021/12/20 05:09:14;;;;;;;29.88;4.55;;;;;;;-146.64;100.00;39648.88;5008646;28;20032;-77
2021/12/20 05:11:47;;;;;;;20.83;3.85;;;;;;;-146.64;100.00;39601.81;5009691;28;20389;-77
2021/12/20 05:14:12;;;;;;;28.10;5.03;;;;;;;-146.64;100.00;39587.47;5007641;28;20326;-77
2021/12/20 05:16:37;;;;;;;36.63;4.38;;;;;;;-146.64;100.00;39603.84;5006821;28;20033;-77
2021/12/20 05:19:04;;;;;;;21.50;3.60;;;;;;;-146.64;100.00;39552.69;5003688;28;20034;-77
2021/12/20 05:21:30;;;;;;;35.85;5.70;;;;;;;-146.64;100.00;39587.47;4992241;28;20013;-77
2021/12/20 05:23:55;;;;;;;23.05;3.92;;;;;;;-146.64;100.00;39454.44;4992295;28;20026;-77
2021/12/20 05:26:20;;;;;;;35.33;4.28;;;;;;;-146.64;100.00;39526.09;4992164;28;20021;-77
2021/12/20 05:28:45;;;;;;;29.73;4.05;;;;;;;-146.64;100.00;39507.66;5002071;28;20030;-77
2021/12/20 05:31:11;;;;;;;21.33;4.38;;;;;;;-146.64;100.00;39505.63;5001693;28;20470;-77
2021/12/20 05:33:37;;;;;;;23.40;4.30;;;;;;;-146.64;100.00;39503.56;5006529;28;20022;-77
2021/12/20 05:36:02;;;;;;;22.05;4.25;;;;;;;-146.64;100.00;39571.09;5008513;28;20100;-77
2021/12/20 05:38:27;;;;;;;25.70;3.25;;;;;;;-146.64;100.00;39526.09;5009713;28;20029;-77
2021/12/20 05:40:53;;;;;;;29.60;4.20;;;;;;;-146.64;100.00;39485.16;5008400;28;20394;-77
2021/12/20 05:43:18;;;;;;;37.38;3.92;;;;;;;-146.64;100.00;39513.81;5007257;28;20022;-77
2021/12/20 05:45:44;;;;;;;25.63;3.78;;;;;;;-146.64;100.00;39534.25;4992217;28;20088;-77
2021/12/20 05:48:09;;;;;;;26.48;3.88;;;;;;;-146.64;100.00;39522.00;4991762;28;20061;-77
2021/12/20 05:50:34;;;;;;;25.65;3.83;;;;;;;-146.64;100.00;39530.16;5008267;28;20044;-77
2021/12/20 05:53:00;;;;;;;25.63;4.70;;;;;;;-146.64;100.00;39583.38;5006579;28;20036;-77
2021/12/20 05:55:25;;;;;;;24.10;5.63;;;;;;;-146.64;100.00;39554.72;5006296;28;20029;-77
2021/12/20 05:57:50;;;;;;;21.55;3.33;;;;;;;-146.64;100.00;39560.88;5003662;28;20026;-77
2021/12/20 06:00:19;;;;;;;36.42;3.92;;;;;;;-146.64;100.00;39618.19;4991556;28;20030;-77
2021/12/20 06:02:46;;;;;;;22.98;4.45;;;;;;;-146.64;100.00;39575.19;5006830;28;20032;-77
2021/12/20 06:05:12;;;;;;;27.92;4.15;;;;;;;-146.64;100.00;39564.97;4988531;28;20055;-77
2021/12/20 06:07:40;;;;;;;28.25;5.35;;;;;;;-146.64;100.00;39556.78;5018408;28;20034;-77
2021/12/20 06:10:08;;;;;;;26.42;4.40;;;;;;;-146.64;100.00;39509.72;4991731;28;20097;-77
2021/12/20 06:12:33;;;;;;;21.45;3.58;;;;;;;-146.64;100.00;39550.63;5007241;28;20025;-77
2021/12/20 06:14:59;;;;;;;27.52;3.80;;;;;;;-146.64;100.00;39540.41;5002504;28;20030;-77
2021/12/20 06:17:24;;;;;;;27.83;3.70;;;;;;;-146.64;100.00;39534.25;5001126;28;20532;-77
2021/12/20 06:19:49;;;;;;;37.10;4.38;;;;;;;-146.64;100.00;39579.28;4991608;28;20033;-76
2021/12/20 06:22:15;;;;;;;33.28;5.03;;;;;;;-146.64;100.00;39581.34;5008384;28;20065;-76
2021/12/20 06:24:40;;;;;;;19.50;3.50;;;;;;;-146.64;100.00;39526.09;4985017;28;20034;-77
2021/12/20 06:27:06;;;;;;;29.20;5.20;;;;;;;-146.64;100.00;39538.34;4990399;28;20030;-76
2021/12/20 06:29:31;;;;;;;19.08;4.45;;;;;;;-146.64;100.00;39554.72;5009455;28;20414;-76
2021/12/20 06:31:57;;;;;;;27.48;4.28;;;;;;;-146.64;100.00;39569.06;4981879;28;20018;-77
2021/12/20 06:34:22;;;;;;;24.83;3.45;;;;;;;-146.64;100.00;39538.34;5013157;28;20034;-76
2021/12/20 06:36:47;;;;;;;37.00;4.63;;;;;;;-146.64;100.00;39526.09;5011520;28;20072;-76
2021/12/20 06:39:13;;;;;;;44.08;5.35;;;;;;;-146.64;100.00;39564.97;5012351;28;20105;-77
2021/12/20 06:41:38;;;;;;;18.98;3.42;;;;;;;-146.64;100.00;39616.13;5011587;28;20038;-77
2021/12/20 06:44:04;;;;;;;38.88;4.22;;;;;;;-146.64;100.00;39554.72;5010645;28;20026;-76
2021/12/20 06:46:31;;;;;;;29.80;4.77;;;;;;;-146.64;100.00;39564.97;5011115;28;20036;-77
2021/12/20 06:48:56;;;;;;;28.45;4.05;;;;;;;-146.64;100.00;39562.91;5011706;28;20100;-77
2021/12/20 06:51:21;;;;;;;40.72;4.65;;;;;;;-146.64;100.00;39583.38;5010748;28;20113;-77
2021/12/20 06:53:47;;;;;;;32.70;4.13;;;;;;;-146.64;100.00;39571.09;5012912;28;20029;-77
2021/12/20 06:56:13;;;;;;;33.45;5.43;;;;;;;-146.64;100.00;39560.88;5008847;28;20056;-77
2021/12/20 06:58:38;;;;;;;26.10;4.97;;;;;;;-146.64;100.00;39567.00;5011379;28;20117;-77
2021/12/20 07:01:04;;;;;;;36.25;5.30;;;;;;;-146.64;100.00;39562.91;5010519;28;20033;-77
2021/12/20 07:03:29;;;;;;;20.95;4.40;;;;;;;-146.64;100.00;39597.72;5005830;28;20101;-77
2021/12/20 07:05:54;;;;;;;29.02;4.40;;;;;;;-146.64;100.00;39620.22;5025286;28;20045;-76
2021/12/20 07:08:20;;;;;;;26.42;4.22;;;;;;;-146.64;100.00;39605.91;4995654;28;20034;-77
2021/12/20 07:10:45;;;;;;;19.13;3.75;;;;;;;-146.64;100.00;39571.09;4989371;28;20044;-76
2021/12/20 07:13:10;;;;;;;29.25;5.32;;;;;;;-146.64;100.00;39456.50;5010894;28;20128;-76
2021/12/20 07:15:36;;;;;;;28.10;4.97;;;;;;;-146.64;100.00;39597.72;5012597;28;20048;-77
2021/12/20 07:18:03;;;;;;;25.48;3.42;;;;;;;-146.64;100.00;39599.75;4996999;28;20540;-77
2021/12/20 07:20:28;;;;;;;32.47;4.18;;;;;;;-146.64;100.00;39624.31;5013744;28;20071;-76
2021/12/20 07:22:53;;;;;;;29.38;4.68;;;;;;;-146.64;100.00;39603.84;5000156;28;20022;-76
2021/12/20 07:25:20;;;;;;;36.85;4.88;;;;;;;-146.64;100.00;39628.41;4997097;28;20033;-76
2021/12/20 07:27:49;;;;;;;28.90;4.80;;;;;;;-146.64;100.00;39677.53;4996853;28;20032;-77
2021/12/20 07:30:15;;;;;;;23.98;3.90;;;;;;;-146.64;100.00;39677.53;4996730;28;20380;-76
2021/12/20 07:32:41;;;;;;;29.08;4.00;;;;;;;-146.64;100.00;39628.41;4997491;28;20115;-76
2021/12/20 07:35:06;;;;;;;31.48;4.55;;;;;;;-146.64;100.00;39616.13;4997227;28;20036;-76
2021/12/20 07:37:31;;;;;;;25.15;4.78;;;;;;;-146.64;100.00;39644.78;5018363;28;20639;-76
2021/12/20 07:39:57;;;;;;;26.60;4.60;;;;;;;-146.64;100.00;39640.69;5011615;28;20433;-76
2021/12/20 07:42:22;;;;;;;29.42;4.80;;;;;;;-146.64;100.00;39632.50;5012927;28;20041;-76
2021/12/20 07:44:47;;;;;;;22.70;4.13;;;;;;;-146.64;100.00;39605.91;5013431;28;20045;-76
2021/12/20 07:47:13;;;;;;;29.90;3.72;;;;;;;-146.64;100.00;39583.38;4997495;28;20100;-76
2021/12/20 07:49:38;;;;;;;31.13;4.88;;;;;;;-146.64;100.00;39585.44;5029413;28;20091;-76
2021/12/20 07:52:04;;;;;;;23.92;4.18;;;;;;;-146.64;100.00;39603.84;5013847;28;20083;-76
2021/12/20 07:54:30;;;;;;;28.77;3.58;;;;;;;-146.64;100.00;39571.09;5013108;28;20087;-76
2021/12/20 07:56:55;;;;;;;19.23;3.55;;;;;;;-146.64;100.00;39652.97;5012156;28;20337;-76
2021/12/20 07:59:20;;;;;;;28.13;5.75;;;;;;;-146.64;100.00;39601.81;5013257;28;20456;-76
2021/12/20 08:01:46;;;;;;;22.27;4.50;;;;;;;-146.64;100.00;39587.47;5031136;28;20025;-76
2021/12/20 08:04:11;;;;;;;25.55;4.78;;;;;;;-146.64;100.00;39509.72;5009165;28;20038;-75
2021/12/20 08:06:36;;;;;;;19.08;4.10;;;;;;;-146.64;100.00;39597.72;5010680;28;20048;-75
2021/12/20 08:09:03;;;;;;;27.58;5.47;;;;;;;-146.64;100.00;39554.72;5009424;28;20061;-75
2021/12/20 08:11:28;;;;;;;29.17;5.28;;;;;;;-146.64;100.00;39587.47;5008051;28;20116;-75
2021/12/20 08:13:53;;;;;;;28.70;4.45;;;;;;;-146.64;100.00;39599.75;5008364;28;20128;-75
2021/12/20 08:16:19;;;;;;;29.77;4.68;;;;;;;-146.64;100.00;39603.84;4989481;28;20190;-75
2021/12/20 08:18:46;;;;;;;25.90;4.10;;;;;;;-146.64;100.00;39558.81;5004561;28;20049;-75
2021/12/20 08:21:14;;;;;;;25.27;4.63;;;;;;;-146.64;100.00;39620.22;5010042;28;20029;-75
2021/12/20 08:23:40;;;;;;;23.83;3.92;;;;;;;-146.64;100.00;39575.19;4992111;28;20490;-75
2021/12/20 08:26:06;;;;;;;17.65;4.05;;;;;;;-146.64;100.00;39575.19;4989175;28;20048;-75
2021/12/20 08:28:32;;;;;;;22.85;3.38;;;;;;;-146.64;100.00;39581.34;5000496;28;20025;-75
2021/12/20 08:30:57;;;;;;;20.60;4.50;;;;;;;-146.64;100.00;39560.88;5008716;28;20485;-75
2021/12/20 08:33:23;;;;;;;23.88;4.75;;;;;;;-146.64;100.00;39567.00;5006599;28;20381;-75
2021/12/20 08:35:49;;;;;;;18.23;4.43;;;;;;;-146.64;100.00;39593.63;5004245;28;20045;-75
2021/12/20 08:38:17;;;;;;;17.27;3.47;;;;;;;-146.64;100.00;39530.16;5001664;28;20026;-75
2021/12/20 08:40:42;;;;;;;23.73;4.20;;;;;;;-146.64;100.00;39562.91;5009451;28;20033;-75
2021/12/20 08:43:07;;;;;;;20.73;3.83;;;;;;;-146.64;100.00;39550.63;5005557;28;20049;-75
2021/12/20 08:45:33;;;;;;;30.67;5.65;;;;;;;-146.64;100.00;39558.81;5001321;28;20126;-75
2021/12/20 08:47:58;;;;;;;18.50;3.30;;;;;;;-146.64;100.00;39542.44;5020973;28;20026;-75
2021/12/20 08:50:24;;;;;;;16.40;3.03;;;;;;;-146.64;100.00;39538.34;4991520;28;20017;-75
2021/12/20 08:52:50;;;;;;;18.95;3.45;;;;;;;-146.64;100.00;39599.75;5006398;28;20573;-77
2021/12/20 08:55:15;;;;;;;19.25;3.85;;;;;;;-146.64;100.00;39579.28;5007066;28;20079;-77
2021/12/20 08:57:42;;;;;;;26.58;3.95;;;;;;;-146.64;100.00;39554.72;5008307;28;20137;-77
2021/12/20 09:00:11;;;;;;;19.80;3.90;;;;;;;-146.64;100.00;39562.91;5006710;28;20450;-77
2021/12/20 09:02:36;;;;;;;21.88;3.78;;;;;;;-146.64;100.00;39546.53;5005666;28;20034;-77
2021/12/20 09:05:03;;;;;;;25.55;3.75;;;;;;;-146.64;100.00;39511.75;5007018;28;20052;-76
2021/12/20 09:07:28;;;;;;;27.38;4.40;;;;;;;-146.64;100.00;39550.63;5007749;28;20057;-76
2021/12/20 09:09:54;;;;;;;22.65;3.15;;;;;;;-146.64;100.00;39556.78;4990963;28;20062;-76
2021/12/20 09:12:20;;;;;;;17.23;4.22;;;;;;;-146.64;100.00;39546.53;5008194;28;20088;-77
2021/12/20 09:14:47;;;;;;;21.48;3.80;;;;;;;-146.64;100.00;39534.25;5015596;28;20029;-77
2021/12/20 09:17:13;;;;;;;20.15;4.38;;;;;;;-146.64;100.00;39542.44;4993541;28;20397;-77
2021/12/20 09:19:38;;;;;;;25.08;4.75;;;;;;;-146.64;100.00;39505.63;5011908;28;20026;-76
2021/12/20 09:22:06;;;;;;;22.45;4.50;;;;;;;-146.64;100.00;39534.25;5003747;28;20044;-77
2021/12/20 09:24:33;;;;;;;21.65;3.88;;;;;;;-146.64;100.00;39515.84;5017093;28;20389;-77
2021/12/20 09:26:59;;;;;;;20.50;3.55;;;;;;;-146.64;100.00;39534.25;4977459;28;20025;-77
2021/12/20 09:29:24;;;;;;;25.10;5.22;;;;;;;-146.64;100.00;39534.25;5008171;28;20041;-77
2021/12/20 09:31:49;;;;;;;20.92;3.45;;;;;;;-146.64;100.00;39507.66;4994945;28;20041;-76
2021/12/20 09:34:15;;;;;;;15.45;3.38;;;;;;;-146.64;100.00;39530.16;5006658;28;20022;-76
2021/12/20 09:36:40;;;;;;;22.50;4.35;;;;;;;-146.64;100.00;39509.72;5006281;28;20037;-77
2021/12/20 09:39:10;;;;;;;15.43;3.10;;;;;;;-146.64;100.00;39485.16;5005946;28;20049;-77
2021/12/20 09:44:11;;;;;;;17.80;3.90;;;;;;;-146.64;100.00;39513.81;5006217;28;20056;-77
2021/12/20 09:46:37;;;;;;;16.33;2.75;;;;;;;-146.64;100.00;39493.34;4998475;28;20025;-76
2021/12/20 09:49:04;;;;;;;17.25;4.57;;;;;;;-146.64;100.00;39499.47;4984344;28;20038;-76
2021/12/20 09:51:29;;;;;;;18.27;3.78;;;;;;;-146.64;100.00;39526.09;4990620;28;20037;-77
2021/12/20 09:53:55;;;;;;;18.10;4.28;;;;;;;-146.64;100.00;39497.44;5007063;28;20029;-74
2021/12/20 09:56:22;;;;;;;15.90;2.80;;;;;;;-146.64;100.00;39526.09;5008852;28;20033;-77
2021/12/20 09:58:50;;;;;;;17.63;2.83;;;;;;;-146.64;100.00;39476.97;4991774;28;20022;-77
2021/12/20 10:01:18;;;;;;;24.02;3.10;;;;;;;-146.64;100.00;39458.53;5005974;28;20113;-77
2021/12/20 10:03:44;;;;;;;20.45;3.88;;;;;;;-146.64;100.00;39450.34;5007949;28;20038;-77
2021/12/20 10:06:09;;;;;;;12.23;2.70;;;;;;;-146.64;100.00;39446.25;5004559;28;20474;-77
2021/12/20 10:08:37;;;;;;;12.77;2.70;;;;;;;-146.64;100.00;39431.94;4993718;28;20370;-77
2021/12/20 10:11:26;;;;;;;21.27;3.08;;;;;;;-146.64;100.00;39382.81;5018819;28;20029;-77
2021/12/20 10:14:05;;;;;;;15.73;3.28;;;;;;;-146.64;100.00;39472.88;5012636;28;20021;-77
2021/12/20 10:16:30;;;;;;;24.33;3.83;;;;;;;-146.64;100.00;39458.53;4997277;28;20077;-77
2021/12/20 10:18:56;;;;;;;27.60;3.75;;;;;;;-146.64;100.00;39436.03;5000839;28;20026;-77
2021/12/20 10:21:33;;;;;;;20.27;5.15;;;;;;;-146.64;100.00;39442.16;5016814;28;20021;-77
2021/12/20 10:23:58;;;;;;;20.10;4.90;;;;;;;-146.64;100.00;39431.94;5021069;28;20112;-77
2021/12/20 10:26:24;;;;;;;13.60;3.55;;;;;;;-146.64;100.00;39407.38;5034329;28;20120;-77
2021/12/20 10:28:52;;;;;;;24.38;3.42;;;;;;;-146.64;100.00;39452.41;5030332;28;20055;-77
2021/12/20 10:31:22;;;;;;;24.02;4.05;;;;;;;-146.64;100.00;39427.84;5014277;28;20030;-78
2021/12/20 10:33:56;;;;;;;15.77;3.42;;;;;;;-146.64;100.00;39382.81;5031095;28;20060;-77
2021/12/20 10:36:22;;;;;;;16.35;4.05;;;;;;;-146.64;100.00;39444.22;5011943;28;20029;-77
2021/12/20 10:38:56;;;;;;;20.93;3.33;;;;;;;-146.64;100.00;39391.00;5010730;28;20120;-78
2021/12/20 10:41:32;;;;;;;18.52;3.70;;;;;;;-146.64;100.00;39391.00;4998927;28;20083;-77
2021/12/20 10:44:01;;;;;;;16.25;3.22;;;;;;;-146.64;100.00;39456.50;5004795;28;20060;-77
2021/12/20 10:46:31;;;;;;;19.55;3.03;;;;;;;-146.64;100.00;39407.38;5014356;28;20033;-77
2021/12/20 10:49:05;;;;;;;14.32;2.50;;;;;;;-146.64;100.00;39391.00;5013830;28;20045;-75
2021/12/20 10:51:36;;;;;;;16.73;3.15;;;;;;;-146.64;100.00;39370.53;5004447;28;20397;-75
2021/12/20 10:54:07;;;;;;;25.25;4.25;;;;;;;-146.64;100.00;39386.91;4996102;28;20041;-75
2021/12/20 10:56:34;;;;;;;22.50;3.00;;;;;;;-146.64;100.00;39395.09;5011959;28;20515;-75
2021/12/20 10:59:02;;;;;;;18.67;3.15;;;;;;;-146.64;100.00;39399.19;4997327;28;20029;-75
2021/12/20 11:04:21;;;;;;;22.15;3.72;;;;;;;-146.64;100.00;39372.56;5005539;28;20041;-75
2021/12/20 11:09:26;;;;;;;23.33;3.47;;;;;;;-146.64;100.00;39423.75;5029385;28;20444;-75
2021/12/20 11:11:55;;;;;;;18.13;3.40;;;;;;;-146.64;100.00;39391.00;4995107;28;20060;-75
2021/12/20 11:14:26;;;;;;;15.10;2.97;;;;;;;-146.64;100.00;39350.06;5013304;28;20069;-75
2021/12/20 11:16:53;;;;;;;22.30;2.95;;;;;;;-146.64;100.00;39391.00;5023832;28;20500;-75